General Juan N Alvarez International Airport
MMAA : now visible

Airfield :











YOU CAN JOIN US ON...

 
LOGIN :

Register | Disclaimer

   EN    FR    IT 

 









Legend :    VFR   Marginal VFR   IFR   Intensive IFR   Very Intensive IFR
Visi :
Ceiling :
>= 8 km
>= 3000ft
5 to 8 km
1000 to 3000 ft
1500m to 5 km
500 to 1000 ft
800 to 1500m
200 to 500 ft
< 800m
< 200 ft
Symbols :   Thunderstorms  Fog  Heavy snow  Heavy precipitations  Wind > 20 kt






- Airport Elevation : 16 ft
- IATA code : ACA


MMAA - General Juan N Alvarez International

CURRENT METAR :
  • 271052Z 35004KT 5SM -RA SCT015 OVC070 24/22 A2982 RMK 60145 8/46/

EXPIRED METARs :
  • 270948Z 33004KT 5SM -RA SCT015 OVC090 23/22 A2982 RMK 60225 8/46/ DSNT CB AND OCNL LTGIC E
  • 270845Z 32009KT 4SM -RA BKN015CB OVC090 23/22 A2982 RMK SLP101 52003 921 60105 8/96/ RAB37 OCNL LTGIC

TAF AMD TAF MMAA
Valid from the 27 at 10:00 until the 28 at 12:00 UTC


270943Z 2710/2812 33005KT 4SM -RA BKN015CB OVC090 TX30/2721Z TN25/2712Z
FM271200 04005KT P6SM SCT015 BKN100
FM271800 23008KT P6SM SCT015 BKN080 BKN250
FM280600 34005KT P6SM SCT015 SCT100 BKN250
PROB40 2808/2812 5SM -RA BKN015CB
MMFR FIR / North America



MET'MAP, your aeronautical weather chart ! - Copyright ORBIFLY December 2007 - Disclaimer

ORBIFLY MET'MAP TEAM :

Programming & Development : Alexandra Zaïnal
Original concept : Baudouin d'Aumeries
Technical & hardware support : Manuel Goepfert
Assistance : Marc-Olivier Méhu




SOURCES & CREDITS :

   NOAA       Earth
Advisory